createdAt,value
2022-09-07T00:01:07.932Z,97898.84
2022-09-07T00:03:37.044Z,97899.19
2022-09-07T00:06:07.561Z,97898.34
2022-09-07T00:08:36.574Z,97892.03
2022-09-07T00:11:07.520Z,97892.44
2022-09-07T00:13:37.171Z,97899.13
2022-09-07T00:16:10.748Z,97887.94
2022-09-07T00:18:42.513Z,97887.41
2022-09-07T00:21:15.628Z,97894.75
2022-09-07T00:23:44.229Z,97892.59
2022-09-07T00:26:14.528Z,97899.97
2022-09-07T00:28:43.128Z,97880.53
2022-09-07T00:31:20.127Z,97887.09
2022-09-07T00:33:49.403Z,97880.09
2022-09-07T00:36:18.558Z,97881.00
2022-09-07T00:38:46.972Z,97884.91
2022-09-07T00:41:16.136Z,97887.41
2022-09-07T00:43:49.817Z,97897.50
2022-09-07T00:46:20.506Z,97893.75
2022-09-07T00:49:03.791Z,97897.47
2022-09-07T00:51:33.944Z,97899.41
2022-09-07T00:54:06.434Z,97903.91
2022-09-07T00:56:36.679Z,97893.22
2022-09-07T00:59:05.329Z,97894.22
2022-09-07T01:01:34.355Z,97899.19
2022-09-07T01:04:03.076Z,97895.69
2022-09-07T01:06:38.663Z,97896.00
2022-09-07T01:09:12.127Z,97890.94
2022-09-07T01:11:40.333Z,97884.97
2022-09-07T01:14:11.390Z,97898.94
2022-09-07T01:16:52.512Z,97891.03
2022-09-07T01:19:57.224Z,97888.22
2022-09-07T01:22:49.997Z,97879.66
2022-09-07T01:25:35.748Z,97880.56
2022-09-07T01:28:31.579Z,97872.00
2022-09-07T01:31:18.396Z,97873.69
2022-09-07T01:33:59.666Z,97868.94
2022-09-07T01:36:58.356Z,97869.06
2022-09-07T01:39:35.641Z,97873.00
2022-09-07T01:42:16.496Z,97868.38
2022-09-07T01:44:50.627Z,97870.97
2022-09-07T01:47:32.268Z,97869.41
2022-09-07T01:50:03.749Z,97866.09
2022-09-07T01:52:32.326Z,97865.69
2022-09-07T01:55:15.471Z,97860.50
2022-09-07T01:57:46.751Z,97862.72
2022-09-07T02:00:16.221Z,97861.28
2022-09-07T02:03:06.354Z,97855.41
2022-09-07T02:05:54.377Z,97860.84
2022-09-07T02:08:47.313Z,97862.31
2022-09-07T02:11:18.887Z,97852.16
2022-09-07T02:13:53.965Z,97858.00
2022-09-07T02:16:24.904Z,97859.47
2022-09-07T02:19:01.183Z,97855.97
2022-09-07T02:21:39.476Z,97855.66
2022-09-07T02:24:15.217Z,97845.03
2022-09-07T02:26:43.622Z,97846.75
2022-09-07T02:29:12.619Z,97843.47
2022-09-07T02:31:41.220Z,97835.34
2022-09-07T02:34:09.534Z,97841.44
2022-09-07T02:36:41.886Z,97836.16
2022-09-07T02:39:10.226Z,97834.78
2022-09-07T02:41:40.784Z,97830.94
2022-09-07T02:44:17.539Z,97838.41
2022-09-07T02:47:04.568Z,97834.00
2022-09-07T02:49:54.084Z,97843.13
2022-09-07T02:52:29.344Z,97834.78
2022-09-07T02:55:14.169Z,97832.53
2022-09-07T02:57:51.540Z,97836.59
2022-09-07T03:00:26.351Z,97834.91
2022-09-07T03:03:03.749Z,97844.03
2022-09-07T03:05:45.921Z,97844.03
2022-09-07T03:08:32.244Z,97840.97
2022-09-07T03:11:01.747Z,97838.97
2022-09-07T03:13:30.232Z,97841.75
2022-09-07T03:15:58.662Z,97846.63
2022-09-07T03:18:28.746Z,97843.03
2022-09-07T03:20:57.255Z,97844.59
2022-09-07T03:23:26.108Z,97834.78
2022-09-07T03:25:54.624Z,97852.91
2022-09-07T03:28:22.946Z,97846.47
2022-09-07T03:30:51.404Z,97846.38
2022-09-07T03:33:20.451Z,97854.38
2022-09-07T03:35:57.888Z,97857.19
2022-09-07T03:38:26.851Z,97851.78
2022-09-07T03:41:00.134Z,97862.56
2022-09-07T03:43:29.012Z,97853.97
2022-09-07T03:46:01.865Z,97866.16
2022-09-07T03:48:36.712Z,97864.34
2022-09-07T03:51:09.431Z,97874.56
2022-09-07T03:53:39.003Z,97870.44
2022-09-07T03:56:09.651Z,97879.25
2022-09-07T03:58:38.057Z,97877.09
2022-09-07T04:01:08.485Z,97869.91
2022-09-07T04:03:37.117Z,97875.66
2022-09-07T04:06:05.636Z,97875.59
2022-09-07T04:08:34.866Z,97880.88
2022-09-07T04:11:04.199Z,97881.34
2022-09-07T04:13:33.238Z,97888.44
2022-09-07T04:16:09.087Z,97896.34
2022-09-07T04:18:37.710Z,97889.56
2022-09-07T04:21:08.400Z,97889.63
2022-09-07T04:23:40.737Z,97888.19
2022-09-07T04:26:16.858Z,97899.31
2022-09-07T04:28:45.912Z,97896.97
2022-09-07T04:31:16.315Z,97899.31
2022-09-07T04:33:45.452Z,97900.50
2022-09-07T04:36:14.777Z,97904.72
2022-09-07T04:38:43.047Z,97898.03
2022-09-07T04:41:13.997Z,97897.09
2022-09-07T04:43:43.633Z,97898.38
2022-09-07T04:46:36.220Z,97899.34
2022-09-07T04:49:07.191Z,97898.22
2022-09-07T04:51:35.933Z,97900.53
2022-09-07T04:54:04.467Z,97899.88
2022-09-07T04:56:32.953Z,97899.53
2022-09-07T04:59:01.809Z,97902.38
2022-09-07T05:01:30.168Z,97898.56
2022-09-07T05:04:01.011Z,97904.22
2022-09-07T05:06:29.357Z,97900.94
2022-09-07T05:08:58.924Z,97907.28
2022-09-07T05:11:29.427Z,97905.13
2022-09-07T05:13:59.194Z,97909.31
2022-09-07T05:16:27.620Z,97908.06
2022-09-07T05:18:58.050Z,97905.00
2022-09-07T05:21:28.582Z,97909.78
2022-09-07T05:23:58.287Z,97911.72
2022-09-07T05:26:28.355Z,97904.03
2022-09-07T05:31:46.792Z,97911.69
2022-09-07T05:34:31.646Z,97916.06
2022-09-07T05:37:00.875Z,97903.84
2022-09-07T05:39:29.897Z,97913.69
2022-09-07T05:41:58.931Z,97907.88
2022-09-07T05:47:12.315Z,97912.47
2022-09-07T05:49:40.639Z,97912.44
2022-09-07T05:52:09.261Z,97907.31
2022-09-07T05:54:37.756Z,97908.69
2022-09-07T05:57:07.581Z,97904.50
2022-09-07T05:59:35.891Z,97889.47
2022-09-07T06:02:04.589Z,97899.56
2022-09-07T06:04:33.076Z,97889.69
2022-09-07T06:12:38.717Z,97895.97
2022-09-07T06:15:07.676Z,97889.94
2022-09-07T06:17:37.254Z,97883.63
2022-09-07T06:20:06.894Z,97887.00
2022-09-07T06:22:38.440Z,97896.13
2022-09-07T06:25:07.035Z,97884.72
2022-09-07T06:27:35.495Z,97884.78
2022-09-07T06:30:04.709Z,97885.28
2022-09-07T06:32:43.557Z,97885.97
2022-09-07T06:35:12.953Z,97889.22
2022-09-07T06:37:41.473Z,97888.25
2022-09-07T06:40:11.373Z,97885.91
2022-09-07T06:42:40.545Z,97889.44
2022-09-07T06:45:11.881Z,97888.59
2022-09-07T06:47:40.917Z,97890.41
2022-09-07T06:50:10.436Z,97888.78
2022-09-07T06:55:28.142Z,97891.06
2022-09-07T06:57:56.584Z,97894.22
2022-09-07T07:00:25.437Z,97896.19
2022-09-07T07:02:53.957Z,97905.72
2022-09-07T07:05:22.394Z,97893.56
2022-09-07T07:07:50.734Z,97889.94
2022-09-07T07:10:24.229Z,97890.44
2022-09-07T07:12:57.835Z,97881.91
2022-09-07T07:15:29.280Z,97883.47
2022-09-07T07:18:05.402Z,97878.31
2022-09-07T07:20:38.811Z,97879.03
2022-09-07T07:23:08.485Z,97880.50
2022-09-07T07:25:36.946Z,97880.09
2022-09-07T07:30:58.357Z,97884.91
2022-09-07T07:33:31.154Z,97885.13
2022-09-07T07:36:19.139Z,97887.53
2022-09-07T07:44:20.819Z,97878.91
2022-09-07T07:46:50.533Z,97882.63
2022-09-07T07:49:19.786Z,97884.16
2022-09-07T07:54:40.227Z,97893.06
2022-09-07T07:57:08.693Z,97887.16
2022-09-07T07:59:37.063Z,97876.56
2022-09-07T08:02:06.314Z,97879.94
2022-09-07T08:04:35.482Z,97879.22
2022-09-07T08:07:09.520Z,97875.31
2022-09-07T08:09:42.729Z,97874.25
2022-09-07T08:12:13.263Z,97871.66
2022-09-07T08:14:41.871Z,97878.81
2022-09-07T08:17:12.659Z,97875.19
2022-09-07T08:19:41.057Z,97873.59
2022-09-07T08:22:10.213Z,97869.19
2022-09-07T08:24:38.559Z,97865.50
2022-09-07T08:27:07.080Z,97863.13
2022-09-07T08:29:35.871Z,97857.38
2022-09-07T08:32:05.574Z,97856.38
2022-09-07T08:34:37.213Z,97856.88
2022-09-07T08:37:05.597Z,97860.00
2022-09-07T08:39:34.291Z,97857.38
2022-09-07T08:42:16.602Z,97847.34
2022-09-07T08:44:51.269Z,97847.34
2022-09-07T08:47:48.884Z,97831.09
2022-09-07T08:50:24.611Z,97832.34
2022-09-07T08:52:58.820Z,97828.38
2022-09-07T08:55:31.454Z,97829.28
2022-09-07T08:58:21.901Z,97817.03
2022-09-07T09:06:55.738Z,97800.25
2022-09-07T09:09:47.173Z,97804.97
2022-09-07T09:13:14.435Z,97796.56
2022-09-07T09:16:07.140Z,97801.16
2022-09-07T09:18:58.697Z,97800.81
2022-09-07T09:21:28.109Z,97794.78
2022-09-07T09:24:01.122Z,97799.97
2022-09-07T09:26:30.321Z,97794.38
2022-09-07T09:28:58.913Z,97798.28
2022-09-07T09:31:30.935Z,97795.84
2022-09-07T09:34:05.615Z,97793.47
2022-09-07T09:36:41.088Z,97796.56
2022-09-07T09:39:32.444Z,97798.13
2022-09-07T09:42:12.663Z,97791.53
2022-09-07T09:44:41.034Z,97780.84
2022-09-07T09:47:29.852Z,97777.41
2022-09-07T09:52:29.169Z,97777.66
2022-09-07T09:53:05.560Z,97772.00
2022-09-07T09:55:36.597Z,97769.72
2022-09-07T10:01:35.487Z,97763.09
2022-09-07T10:04:34.080Z,97752.72
2022-09-07T10:07:14.130Z,97751.66
2022-09-07T10:09:45.857Z,97752.06
2022-09-07T10:12:40.337Z,97764.75
2022-09-07T10:15:09.128Z,97754.25
2022-09-07T10:17:47.588Z,97749.69
2022-09-07T10:20:21.094Z,97755.66
2022-09-07T10:22:52.202Z,97752.56
2022-09-07T10:25:29.410Z,97739.78
2022-09-07T10:28:18.644Z,97738.56
2022-09-07T10:31:15.365Z,97736.56
2022-09-07T10:36:39.238Z,97723.25
2022-09-07T10:39:09.361Z,97723.13
2022-09-07T10:41:49.303Z,97721.72
2022-09-07T10:44:23.814Z,97723.88
2022-09-07T10:46:59.473Z,97720.13
2022-09-07T10:49:32.973Z,97716.22
2022-09-07T10:52:23.263Z,97712.63
2022-09-07T10:54:55.395Z,97705.81
2022-09-07T10:57:59.836Z,97704.91
2022-09-07T11:00:30.357Z,97706.94
2022-09-07T11:03:32.719Z,97698.16
2022-09-07T11:06:37.230Z,97695.28
2022-09-07T11:09:18.562Z,97693.25
2022-09-07T11:12:05.775Z,97692.03
2022-09-07T11:15:19.759Z,97686.88
2022-09-07T11:17:54.494Z,97700.13
2022-09-07T11:20:26.305Z,97686.22
2022-09-07T11:23:18.561Z,97693.00
2022-09-07T11:26:05.654Z,97691.78
2022-09-07T11:29:29.993Z,97685.34
2022-09-07T11:35:51.309Z,97674.69
2022-09-07T11:38:33.747Z,97677.59
2022-09-07T11:41:12.017Z,97675.22
2022-09-07T11:43:47.963Z,97671.31
2022-09-07T11:46:45.907Z,97673.47
2022-09-07T11:49:26.583Z,97669.41
2022-09-07T11:52:05.411Z,97665.63
2022-09-07T11:54:52.221Z,97669.50
2022-09-07T11:57:39.000Z,97664.50
2022-09-07T12:00:30.092Z,97664.84
2022-09-07T12:03:14.323Z,97662.72
2022-09-07T12:06:02.028Z,97664.28
2022-09-07T12:08:43.764Z,97656.28
2022-09-07T12:11:49.021Z,97655.69
2022-09-07T12:14:33.257Z,97657.28
2022-09-07T12:17:32.035Z,97655.69
2022-09-07T12:20:19.780Z,97650.91
2022-09-07T12:23:07.566Z,97644.59
2022-09-07T12:25:36.043Z,97647.75
2022-09-07T12:28:04.607Z,97649.06
2022-09-07T12:30:36.432Z,97642.94
2022-09-07T12:33:20.209Z,97634.13
2022-09-07T12:35:48.973Z,97637.66
2022-09-07T12:38:17.310Z,97638.88
2022-09-07T12:40:54.720Z,97632.38
2022-09-07T12:43:22.997Z,97624.94
2022-09-07T12:45:52.859Z,97630.13
2022-09-07T12:48:53.525Z,97629.88
2022-09-07T12:54:38.214Z,97622.84
2022-09-07T12:57:32.706Z,97624.53
2022-09-07T13:00:07.355Z,97631.56
2022-09-07T13:02:50.926Z,97624.84
2022-09-07T13:05:31.592Z,97623.06
2022-09-07T13:08:28.272Z,97617.13
2022-09-07T13:10:56.624Z,97618.97
2022-09-07T13:16:32.226Z,97609.44
2022-09-07T13:19:03.339Z,97613.78
2022-09-07T13:21:44.134Z,97609.22
2022-09-07T13:27:33.307Z,97605.19
2022-09-07T13:30:17.052Z,97609.81
2022-09-07T13:35:35.005Z,97602.66
2022-09-07T13:38:04.311Z,97598.91
2022-09-07T13:40:39.236Z,97597.97
2022-09-07T13:43:07.551Z,97592.66
2022-09-07T13:46:02.401Z,97592.66
2022-09-07T13:49:04.832Z,97593.59
2022-09-07T13:51:39.398Z,97593.81
2022-09-07T13:54:29.337Z,97599.69
2022-09-07T13:57:16.465Z,97599.25
2022-09-07T13:59:44.863Z,97590.53
2022-09-07T14:02:29.308Z,97590.53
2022-09-07T14:04:58.547Z,97582.28
2022-09-07T14:07:28.682Z,97588.47
2022-09-07T14:10:21.589Z,97578.06
2022-09-07T14:12:56.637Z,97580.81
2022-09-07T14:15:35.098Z,97571.19
2022-09-07T14:18:14.846Z,97573.84
2022-09-07T14:20:50.984Z,97569.16
2022-09-07T14:23:32.755Z,97568.84
2022-09-07T14:26:22.629Z,97567.88
2022-09-07T14:28:53.735Z,97569.63
2022-09-07T14:31:23.695Z,97566.03
2022-09-07T14:34:00.088Z,97563.88
2022-09-07T14:36:46.102Z,97563.28
2022-09-07T14:39:16.115Z,97566.63
2022-09-07T14:41:45.195Z,97566.28
2022-09-07T14:44:32.848Z,97565.88
2022-09-07T14:47:08.055Z,97567.41
2022-09-07T14:49:38.212Z,97569.09
2022-09-07T14:52:06.563Z,97569.38
2022-09-07T14:54:35.622Z,97579.31
2022-09-07T14:57:32.094Z,97569.38
2022-09-07T15:00:33.150Z,97559.16
2022-09-07T15:03:21.518Z,97565.69
2022-09-07T15:05:50.602Z,97561.75
2022-09-07T15:08:20.701Z,97549.97
2022-09-07T15:13:39.202Z,97564.19
2022-09-07T15:16:08.817Z,97567.59
2022-09-07T15:18:54.537Z,97553.19
2022-09-07T15:21:27.413Z,97548.38
2022-09-07T15:23:57.486Z,97552.03
2022-09-07T15:29:31.929Z,97556.94
2022-09-07T15:32:04.962Z,97560.06
2022-09-07T15:34:34.702Z,97560.31
2022-09-07T15:37:04.166Z,97560.44
2022-09-07T15:39:52.814Z,97562.41
2022-09-07T15:45:10.168Z,97560.22
2022-09-07T15:47:54.045Z,97567.41
2022-09-07T15:50:23.665Z,97561.47
2022-09-07T15:52:52.129Z,97567.91
2022-09-07T15:55:20.605Z,97562.22
2022-09-07T15:57:52.796Z,97559.59
2022-09-07T16:00:26.693Z,97568.06
2022-09-07T16:03:11.053Z,97563.00
2022-09-07T16:05:44.403Z,97565.94
2022-09-07T16:11:23.834Z,97577.09
2022-09-07T16:14:02.254Z,97576.50
2022-09-07T16:19:21.027Z,97571.03
2022-09-07T16:21:50.683Z,97575.88
2022-09-07T16:24:20.310Z,97579.97
2022-09-07T16:26:48.693Z,97580.66
2022-09-07T16:29:17.781Z,97578.84
2022-09-07T16:34:35.292Z,97578.63
2022-09-07T16:37:06.058Z,97570.84
2022-09-07T16:39:35.055Z,97566.75
2022-09-07T16:42:03.696Z,97567.47
2022-09-07T16:44:31.997Z,97559.56
2022-09-07T16:47:00.296Z,97567.88
2022-09-07T16:49:31.490Z,97566.50
2022-09-07T16:52:00.978Z,97567.06
2022-09-07T16:54:29.273Z,97578.78
2022-09-07T16:56:58.310Z,97578.84
2022-09-07T16:59:27.089Z,97584.66
2022-09-07T17:01:55.627Z,97581.25
2022-09-07T17:04:24.202Z,97589.66
2022-09-07T17:06:54.693Z,97587.09
2022-09-07T17:09:29.118Z,97595.09
2022-09-07T17:11:58.354Z,97598.53
2022-09-07T17:14:29.617Z,97593.03
2022-09-07T17:16:59.113Z,97603.13
2022-09-07T17:19:29.441Z,97605.84
2022-09-07T17:22:00.026Z,97614.03
2022-09-07T17:24:29.290Z,97611.84
2022-09-07T17:27:03.265Z,97617.13
2022-09-07T17:29:38.484Z,97629.13
2022-09-07T17:32:24.477Z,97623.94
2022-09-07T17:34:56.970Z,97632.16
2022-09-07T17:37:26.066Z,97632.22
2022-09-07T17:39:58.031Z,97636.94
2022-09-07T17:43:38.974Z,97639.56
2022-09-07T17:45:18.803Z,97634.47
2022-09-07T17:47:51.293Z,97643.41
2022-09-07T17:50:20.569Z,97642.41
2022-09-07T17:52:52.976Z,97648.72
2022-09-07T17:55:27.346Z,97650.81
2022-09-07T17:58:04.693Z,97655.50
2022-09-07T18:00:35.545Z,97654.97
2022-09-07T18:03:13.014Z,97652.97
2022-09-07T18:05:42.268Z,97652.00
2022-09-07T18:08:13.315Z,97658.41
2022-09-07T18:13:35.916Z,97668.34
2022-09-07T18:16:21.072Z,97674.88
2022-09-07T18:18:53.755Z,97675.13
2022-09-07T18:21:36.950Z,97670.41
2022-09-07T18:24:18.708Z,97682.78
2022-09-07T18:26:51.019Z,97677.91
2022-09-07T18:29:33.674Z,97684.72
2022-09-07T18:32:07.762Z,97686.22
2022-09-07T18:34:38.351Z,97685.19
2022-09-07T18:37:08.040Z,97688.13
2022-09-07T18:39:36.860Z,97686.28
2022-09-07T18:42:07.890Z,97687.28
2022-09-07T18:47:36.255Z,97695.75
2022-09-07T18:50:04.995Z,97689.75
2022-09-07T18:52:52.103Z,97690.06
2022-09-07T18:55:36.013Z,97678.53
2022-09-07T18:58:06.603Z,97676.97
2022-09-07T19:00:41.142Z,97681.66
2022-09-07T19:03:15.053Z,97676.97
2022-09-07T19:05:50.698Z,97674.88
2022-09-07T19:08:22.729Z,97667.81
2022-09-07T19:10:56.312Z,97674.09
2022-09-07T19:13:33.856Z,97678.00
2022-09-07T19:16:14.582Z,97675.41
2022-09-07T19:18:49.533Z,97678.00
2022-09-07T19:21:23.749Z,97678.53
2022-09-07T19:23:59.776Z,97675.41
2022-09-07T19:26:38.961Z,97682.44
2022-09-07T19:29:15.972Z,97682.69
2022-09-07T19:32:05.236Z,97682.41
2022-09-07T19:34:40.749Z,97678.97
2022-09-07T19:37:12.548Z,97680.09
2022-09-07T19:39:42.558Z,97682.69
2022-09-07T19:42:11.516Z,97683.25
2022-09-07T19:44:41.071Z,97687.66
2022-09-07T19:47:12.685Z,97688.16
2022-09-07T19:49:42.165Z,97682.59
2022-09-07T19:52:10.747Z,97676.28
2022-09-07T19:54:43.293Z,97679.91
2022-09-07T19:57:12.469Z,97676.03
2022-09-07T19:59:51.384Z,97679.84
2022-09-07T20:02:27.600Z,97679.28
2022-09-07T20:05:00.945Z,97678.00
2022-09-07T20:07:31.885Z,97679.91
2022-09-07T20:10:01.482Z,97676.00
2022-09-07T20:12:30.471Z,97682.94
2022-09-07T20:14:59.383Z,97687.75
2022-09-07T20:17:35.157Z,97688.72
2022-09-07T20:20:05.465Z,97683.59
2022-09-07T20:22:34.687Z,97687.41
2022-09-07T20:25:03.085Z,97674.97
2022-09-07T20:27:36.126Z,97677.72
2022-09-07T20:30:05.537Z,97678.78
2022-09-07T20:32:34.801Z,97673.84
2022-09-07T20:35:04.001Z,97680.75
2022-09-07T20:37:32.301Z,97678.66
2022-09-07T20:40:00.668Z,97674.44
2022-09-07T20:42:29.098Z,97680.28
2022-09-07T20:44:57.570Z,97673.66
2022-09-07T20:47:26.294Z,97679.16
2022-09-07T20:49:54.727Z,97676.53
2022-09-07T20:52:23.163Z,97682.50
2022-09-07T20:54:51.494Z,97675.47
2022-09-07T20:57:19.834Z,97681.75
2022-09-07T20:59:48.150Z,97683.97
2022-09-07T21:02:16.583Z,97685.16
2022-09-07T21:04:45.388Z,97693.06
2022-09-07T21:07:14.276Z,97683.41
2022-09-07T21:09:42.559Z,97691.56
2022-09-07T21:12:11.651Z,97690.75
2022-09-07T21:14:41.328Z,97691.38
2022-09-07T21:17:09.686Z,97693.69
2022-09-07T21:19:38.362Z,97690.84
2022-09-07T21:22:07.271Z,97683.28
2022-09-07T21:24:36.167Z,97686.25
2022-09-07T21:27:04.688Z,97696.22
2022-09-07T21:29:33.583Z,97696.53
2022-09-07T21:32:03.060Z,97690.91
2022-09-07T21:34:33.058Z,97695.47
2022-09-07T21:37:01.399Z,97681.56
2022-09-07T21:39:29.626Z,97683.22
2022-09-07T21:41:58.120Z,97691.06
2022-09-07T21:44:26.442Z,97692.69
2022-09-07T21:46:54.802Z,97693.41
2022-09-07T21:49:23.167Z,97691.59
2022-09-07T21:51:51.479Z,97690.81
2022-09-07T21:54:19.732Z,97689.47
2022-09-07T21:56:49.377Z,97692.34
2022-09-07T21:59:17.650Z,97687.22
2022-09-07T22:01:46.517Z,97694.19
2022-09-07T22:04:15.486Z,97678.25
2022-09-07T22:06:44.182Z,97680.38
2022-09-07T22:09:12.471Z,97680.09
2022-09-07T22:11:45.302Z,97684.41
2022-09-07T22:14:15.965Z,97680.25
2022-09-07T22:16:44.377Z,97686.91
2022-09-07T22:19:12.953Z,97681.09
2022-09-07T22:21:41.270Z,97671.75
2022-09-07T22:24:11.312Z,97674.59
2022-09-07T22:26:39.606Z,97679.50
2022-09-07T22:29:08.691Z,97673.31
2022-09-07T22:31:37.673Z,97672.47
2022-09-07T22:34:10.528Z,97677.41
2022-09-07T22:36:43.356Z,97675.28
2022-09-07T22:39:18.361Z,97675.06
2022-09-07T22:41:47.484Z,97670.69
2022-09-07T22:44:34.211Z,97670.28
2022-09-07T22:47:58.127Z,97665.31
2022-09-07T22:50:26.469Z,97654.53
2022-09-07T22:52:54.741Z,97655.34
2022-09-07T22:55:22.996Z,97649.72
2022-09-07T22:57:51.837Z,97644.66
2022-09-07T23:00:20.058Z,97642.78
2022-09-07T23:02:48.372Z,97636.31
2022-09-07T23:05:17.358Z,97636.44
2022-09-07T23:07:49.199Z,97638.72
2022-09-07T23:10:19.229Z,97640.66
2022-09-07T23:12:47.555Z,97646.41
2022-09-07T23:15:15.942Z,97657.91
2022-09-07T23:17:44.283Z,97647.56
2022-09-07T23:20:12.610Z,97651.41
2022-09-07T23:22:43.709Z,97647.28
2022-09-07T23:25:12.094Z,97649.31
2022-09-07T23:27:40.939Z,97654.31
2022-09-07T23:30:09.803Z,97649.00
2022-09-07T23:32:38.087Z,97649.44
2022-09-07T23:35:07.922Z,97647.00
2022-09-07T23:37:36.113Z,97652.28
2022-09-07T23:40:04.988Z,97641.50
2022-09-07T23:42:33.319Z,97646.41
2022-09-07T23:45:01.677Z,97632.78
2022-09-07T23:47:29.982Z,97645.88
2022-09-07T23:49:58.248Z,97653.09
2022-09-07T23:52:26.439Z,97645.13
2022-09-07T23:54:54.713Z,97651.06
2022-09-07T23:57:24.081Z,97642.19
2022-09-07T23:59:52.958Z,97649.56
